CST,Max TemperatureF,Mean TemperatureF,Min TemperatureF,Max Dew PointF,MeanDew PointF,Min DewpointF,Max Humidity, Mean Humidity, Min Humidity, Max Sea Level PressureIn, Mean Sea Level PressureIn, Min Sea Level PressureIn, Max VisibilityMiles, Mean VisibilityMiles, Min VisibilityMiles, Max Wind SpeedMPH, Mean Wind SpeedMPH, Max Gust SpeedMPH,PrecipitationIn, CloudCover, Events, WindDirDegrees
2013-12-1,42,34,26,34,29,23,89,78,65,30.13,30.08,30.01,7,6,4,10,3,14,0.00,3,,19
2013-12-2,43,35,26,36,29,25,96,79,51,29.99,29.88,29.78,10,5,2,13,4,18,0.13,5,Rain-Snow,114
2013-12-3,50,44,37,47,42,35,96,92,87,29.78,29.73,29.69,3,2,0,13,5,16,0.03,8,Fog-Rain,149
2013-12-4,56,49,41,54,48,35,100,90,75,29.75,29.63,29.52,10,4,1,23,10,36,0.01,8,Rain,171
2013-12-5,41,31,21,34,18,9,83,66,56,30.29,30.02,29.69,10,10,10,21,13,30,0.00,3,,276
2013-12-6,21,16,11,10,7,1,71,64,57,30.59,30.42,30.28,10,10,10,17,10,21,0.00,1,,316
2013-12-7,21,14,7,5,2,-1,76,62,44,30.74,30.66,30.59,10,10,10,14,6,17,0.00,0,,324
2013-12-8,26,20,13,25,18,2,100,81,59,30.61,30.19,29.96,10,4,0,16,6,22,0.00,7,Fog-Snow,103
2013-12-9,25,13,1,21,9,-7,86,72,60,30.27,30.11,29.94,10,8,2,23,11,31,T,4,Snow,257
2013-12-10,22,9,-4,10,3,-7,79,65,54,30.33,30.13,30.00,10,8,1,24,12,35,T,5,Snow,242
2013-12-11,20,11,1,13,5,-9,86,70,50,30.60,30.42,30.26,10,6,1,17,8,21,T,5,Snow,286
2013-12-12,19,9,-2,9,1,-10,71,63,52,30.57,30.39,30.24,10,10,10,18,8,28,0.00,1,,242
2013-12-13,32,23,13,27,20,10,86,75,65,30.24,30.18,30.12,10,7,2,10,3,14,T,5,Snow,89
2013-12-14,31,27,23,28,26,18,93,87,78,30.13,30.01,29.93,10,3,0,13,9,17,0.00,8,Fog-Snow,51
2013-12-15,23,17,11,18,7,-1,86,69,59,30.17,30.04,29.93,10,9,4,22,11,30,T,6,Snow,281
2013-12-16,22,13,4,17,9,-5,89,73,53,30.19,30.10,30.02,10,6,0,12,4,15,T,6,Fog-Snow,283
2013-12-17,34,26,17,23,17,12,92,75,59,30.10,30.02,29.96,10,7,2,18,10,23,T,5,Snow,259
2013-12-18,36,26,16,27,15,8,74,64,46,30.18,30.03,29.84,10,10,10,23,11,31,0.00,2,,222
2013-12-19,38,32,25,35,30,25,97,85,70,29.96,29.89,29.80,10,5,0,13,5,18,0.07,4,Rain,26
2013-12-20,36,35,33,36,33,31,100,93,89,29.84,29.80,29.76,10,4,1,16,8,21,0.30,8,Rain,3
2013-12-21,36,33,30,34,31,28,100,92,87,29.87,29.81,29.67,10,2,0,18,7,26,0.22,8,Fog-Rain,1
2013-12-22,34,29,24,31,27,19,96,86,80,30.14,29.82,29.61,10,6,1,20,11,28,0.11,8,Rain-Snow,332
2013-12-23,25,12,-1,21,8,-9,86,77,69,30.48,30.34,30.16,10,8,4,17,11,22,T,5,,264
2013-12-24,18,8,-2,11,-2,-8,85,73,59,30.59,30.50,30.39,10,7,1,16,8,21,T,5,Snow,247
2013-12-25,26,22,18,23,19,10,88,82,68,30.37,30.20,30.09,10,4,1,18,10,24,T,8,Snow,218
2013-12-26,34,25,15,28,18,9,82,74,66,30.31,30.22,30.09,10,7,1,17,7,23,T,7,Snow,239
2013-12-27,42,30,18,30,25,15,100,79,60,30.31,30.22,30.09,10,6,0,18,8,28,0.00,2,Fog,219
2013-12-28,49,41,32,33,31,29,85,68,54,30.10,29.99,29.83,10,10,8,18,9,25,0.00,0,,211
2013-12-29,40,25,9,30,19,0,93,76,64,30.23,29.97,29.78,10,8,2,20,11,26,T,6,Rain,329
2013-12-30,12,6,-1,3,-2,-8,80,68,49,30.38,30.28,30.20,10,7,1,16,7,20,T,4,Snow,290
2013-12-31,12,7,2,7,4,-4,85,79,61,30.39,30.32,30.23,10,4,1,13,7,17,T,6,Snow,293